sensor_id;sensor_type;location;lat;lon;timestamp;P1;durP1;ratioP1;P2;durP2;ratioP2
51602;SDS011;37954;51.980;5.850;2023-01-30T00:02:05;30.53;;;17.23;;
51602;SDS011;37954;51.980;5.850;2023-01-30T00:06:17;27.47;;;17.63;;
51602;SDS011;37954;51.980;5.850;2023-01-30T00:10:29;27.80;;;17.03;;
51602;SDS011;37954;51.980;5.850;2023-01-30T00:14:40;30.50;;;17.20;;
51602;SDS011;37954;51.980;5.850;2023-01-30T00:18:52;26.10;;;17.50;;
51602;SDS011;37954;51.980;5.850;2023-01-30T00:23:04;32.77;;;18.57;;
51602;SDS011;37954;51.980;5.850;2023-01-30T00:27:16;35.77;;;17.97;;
51602;SDS011;37954;51.980;5.850;2023-01-30T00:31:28;26.53;;;17.80;;
51602;SDS011;37954;51.980;5.850;2023-01-30T00:35:43;29.20;;;17.57;;
51602;SDS011;37954;51.980;5.850;2023-01-30T00:39:57;26.37;;;16.23;;
51602;SDS011;37954;51.980;5.850;2023-01-30T00:44:10;26.47;;;17.07;;
51602;SDS011;37954;51.980;5.850;2023-01-30T00:48:40;29.57;;;16.70;;
51602;SDS011;37954;51.980;5.850;2023-01-30T00:52:52;28.10;;;17.20;;
51602;SDS011;37954;51.980;5.850;2023-01-30T00:57:03;29.77;;;17.30;;
51602;SDS011;37954;51.980;5.850;2023-01-30T01:01:15;30.63;;;17.47;;
51602;SDS011;37954;51.980;5.850;2023-01-30T01:05:26;33.50;;;17.87;;
51602;SDS011;37954;51.980;5.850;2023-01-30T01:09:38;26.53;;;17.37;;
51602;SDS011;37954;51.980;5.850;2023-01-30T01:13:54;25.87;;;17.17;;
51602;SDS011;37954;51.980;5.850;2023-01-30T01:18:07;28.87;;;17.67;;
51602;SDS011;37954;51.980;5.850;2023-01-30T01:22:19;26.67;;;18.53;;
51602;SDS011;37954;51.980;5.850;2023-01-30T01:26:31;29.77;;;17.83;;
51602;SDS011;37954;51.980;5.850;2023-01-30T01:30:43;31.73;;;17.97;;
51602;SDS011;37954;51.980;5.850;2023-01-30T01:34:55;28.07;;;18.17;;
51602;SDS011;37954;51.980;5.850;2023-01-30T01:39:06;32.00;;;18.73;;
51602;SDS011;37954;51.980;5.850;2023-01-30T01:43:19;26.60;;;17.27;;
51602;SDS011;37954;51.980;5.850;2023-01-30T01:47:34;23.27;;;16.93;;
51602;SDS011;37954;51.980;5.850;2023-01-30T01:56:14;25.97;;;17.13;;
51602;SDS011;37954;51.980;5.850;2023-01-30T02:00:29;20.63;;;14.83;;
51602;SDS011;37954;51.980;5.850;2023-01-30T02:04:43;25.83;;;16.30;;
51602;SDS011;37954;51.980;5.850;2023-01-30T02:09:13;23.60;;;15.70;;
51602;SDS011;37954;51.980;5.850;2023-01-30T02:13:25;26.57;;;16.30;;
51602;SDS011;37954;51.980;5.850;2023-01-30T02:17:38;25.10;;;15.27;;
51602;SDS011;37954;51.980;5.850;2023-01-30T02:35:40;16.67;;;11.27;;
51602;SDS011;37954;51.980;5.850;2023-01-30T02:40:14;15.70;;;10.53;;
51602;SDS011;37954;51.980;5.850;2023-01-30T02:44:54;11.90;;;8.43;;
51602;SDS011;37954;51.980;5.850;2023-01-30T02:49:18;12.60;;;8.50;;
51602;SDS011;37954;51.980;5.850;2023-01-30T02:53:35;12.60;;;8.43;;
51602;SDS011;37954;51.980;5.850;2023-01-30T02:57:49;14.23;;;8.50;;
51602;SDS011;37954;51.980;5.850;2023-01-30T03:02:10;11.60;;;8.10;;
51602;SDS011;37954;51.980;5.850;2023-01-30T03:07:01;11.53;;;7.67;;
51602;SDS011;37954;51.980;5.850;2023-01-30T03:11:21;10.23;;;7.70;;
51602;SDS011;37954;51.980;5.850;2023-01-30T03:19:50;14.07;;;7.90;;
51602;SDS011;37954;51.980;5.850;2023-01-30T03:24:04;11.57;;;7.20;;
51602;SDS011;37954;51.980;5.850;2023-01-30T03:28:17;9.93;;;6.90;;
51602;SDS011;37954;51.980;5.850;2023-01-30T03:32:32;10.40;;;6.93;;
51602;SDS011;37954;51.980;5.850;2023-01-30T03:36:45;8.00;;;5.80;;
51602;SDS011;37954;51.980;5.850;2023-01-30T03:40:59;8.83;;;6.60;;
51602;SDS011;37954;51.980;5.850;2023-01-30T03:45:10;12.40;;;6.20;;
51602;SDS011;37954;51.980;5.850;2023-01-30T03:49:22;11.10;;;6.10;;
51602;SDS011;37954;51.980;5.850;2023-01-30T03:53:35;9.57;;;5.77;;
51602;SDS011;37954;51.980;5.850;2023-01-30T03:57:46;7.70;;;4.80;;
51602;SDS011;37954;51.980;5.850;2023-01-30T04:01:59;9.10;;;4.83;;
51602;SDS011;37954;51.980;5.850;2023-01-30T04:06:11;10.70;;;6.23;;
51602;SDS011;37954;51.980;5.850;2023-01-30T04:10:23;9.67;;;6.13;;
51602;SDS011;37954;51.980;5.850;2023-01-30T04:14:36;10.53;;;6.20;;
51602;SDS011;37954;51.980;5.850;2023-01-30T04:19:06;8.80;;;6.10;;
51602;SDS011;37954;51.980;5.850;2023-01-30T04:23:17;9.83;;;5.60;;
51602;SDS011;37954;51.980;5.850;2023-01-30T04:27:29;8.47;;;6.20;;
51602;SDS011;37954;51.980;5.850;2023-01-30T04:31:53;8.70;;;5.53;;
51602;SDS011;37954;51.980;5.850;2023-01-30T04:36:09;9.13;;;6.07;;
51602;SDS011;37954;51.980;5.850;2023-01-30T04:40:21;10.10;;;5.73;;
51602;SDS011;37954;51.980;5.850;2023-01-30T04:44:32;10.73;;;6.13;;
51602;SDS011;37954;51.980;5.850;2023-01-30T04:48:54;10.83;;;5.80;;
51602;SDS011;37954;51.980;5.850;2023-01-30T04:53:06;12.13;;;5.90;;
51602;SDS011;37954;51.980;5.850;2023-01-30T04:57:17;8.43;;;5.33;;
51602;SDS011;37954;51.980;5.850;2023-01-30T05:01:31;12.23;;;5.43;;
51602;SDS011;37954;51.980;5.850;2023-01-30T05:05:47;9.23;;;5.17;;
51602;SDS011;37954;51.980;5.850;2023-01-30T05:09:59;12.87;;;5.07;;
51602;SDS011;37954;51.980;5.850;2023-01-30T05:14:10;7.00;;;4.30;;
51602;SDS011;37954;51.980;5.850;2023-01-30T05:18:22;8.27;;;4.47;;
51602;SDS011;37954;51.980;5.850;2023-01-30T05:22:34;6.57;;;3.50;;
51602;SDS011;37954;51.980;5.850;2023-01-30T05:26:45;9.90;;;4.40;;
51602;SDS011;37954;51.980;5.850;2023-01-30T05:31:00;9.37;;;3.80;;
51602;SDS011;37954;51.980;5.850;2023-01-30T05:35:12;10.50;;;3.13;;
51602;SDS011;37954;51.980;5.850;2023-01-30T05:39:24;10.10;;;3.30;;
51602;SDS011;37954;51.980;5.850;2023-01-30T05:43:35;10.43;;;2.57;;
51602;SDS011;37954;51.980;5.850;2023-01-30T05:47:50;8.50;;;3.10;;
51602;SDS011;37954;51.980;5.850;2023-01-30T05:52:06;10.80;;;3.17;;
51602;SDS011;37954;51.980;5.850;2023-01-30T05:56:18;7.43;;;2.60;;
51602;SDS011;37954;51.980;5.850;2023-01-30T06:00:30;7.47;;;2.20;;
51602;SDS011;37954;51.980;5.850;2023-01-30T06:04:41;5.03;;;2.00;;
51602;SDS011;37954;51.980;5.850;2023-01-30T06:08:53;3.07;;;1.80;;
51602;SDS011;37954;51.980;5.850;2023-01-30T06:13:06;7.70;;;2.27;;
51602;SDS011;37954;51.980;5.850;2023-01-30T06:17:17;6.00;;;2.10;;
51602;SDS011;37954;51.980;5.850;2023-01-30T06:21:29;6.63;;;1.70;;
51602;SDS011;37954;51.980;5.850;2023-01-30T06:25:47;9.07;;;2.90;;
51602;SDS011;37954;51.980;5.850;2023-01-30T06:29:59;6.93;;;2.10;;
51602;SDS011;37954;51.980;5.850;2023-01-30T06:34:11;7.83;;;2.10;;
51602;SDS011;37954;51.980;5.850;2023-01-30T06:38:22;7.17;;;1.87;;
51602;SDS011;37954;51.980;5.850;2023-01-30T06:42:36;4.57;;;1.63;;
51602;SDS011;37954;51.980;5.850;2023-01-30T06:46:47;7.10;;;2.37;;
51602;SDS011;37954;51.980;5.850;2023-01-30T06:50:59;9.47;;;2.07;;
51602;SDS011;37954;51.980;5.850;2023-01-30T06:55:11;10.40;;;2.63;;
51602;SDS011;37954;51.980;5.850;2023-01-30T06:59:25;5.80;;;1.60;;
51602;SDS011;37954;51.980;5.850;2023-01-30T07:03:36;6.83;;;2.20;;
51602;SDS011;37954;51.980;5.850;2023-01-30T07:07:48;6.53;;;1.80;;
51602;SDS011;37954;51.980;5.850;2023-01-30T07:11:59;6.73;;;1.90;;
51602;SDS011;37954;51.980;5.850;2023-01-30T07:16:11;11.27;;;2.40;;
51602;SDS011;37954;51.980;5.850;2023-01-30T07:20:22;11.57;;;2.00;;
51602;SDS011;37954;51.980;5.850;2023-01-30T07:24:34;10.87;;;2.00;;
51602;SDS011;37954;51.980;5.850;2023-01-30T07:28:45;6.67;;;2.23;;
51602;SDS011;37954;51.980;5.850;2023-01-30T07:32:58;12.07;;;2.30;;
51602;SDS011;37954;51.980;5.850;2023-01-30T07:37:10;12.43;;;3.00;;
51602;SDS011;37954;51.980;5.850;2023-01-30T07:41:22;8.53;;;2.57;;
51602;SDS011;37954;51.980;5.850;2023-01-30T07:45:34;14.40;;;2.83;;
51602;SDS011;37954;51.980;5.850;2023-01-30T07:49:48;8.90;;;2.20;;
51602;SDS011;37954;51.980;5.850;2023-01-30T07:54:05;11.93;;;2.23;;
51602;SDS011;37954;51.980;5.850;2023-01-30T07:58:17;12.97;;;2.27;;
51602;SDS011;37954;51.980;5.850;2023-01-30T08:02:28;10.33;;;2.93;;
51602;SDS011;37954;51.980;5.850;2023-01-30T08:06:40;7.00;;;1.73;;
51602;SDS011;37954;51.980;5.850;2023-01-30T08:10:52;16.83;;;2.83;;
51602;SDS011;37954;51.980;5.850;2023-01-30T08:15:04;9.10;;;1.90;;
51602;SDS011;37954;51.980;5.850;2023-01-30T08:19:16;9.17;;;1.70;;
51602;SDS011;37954;51.980;5.850;2023-01-30T08:23:28;10.50;;;2.43;;
51602;SDS011;37954;51.980;5.850;2023-01-30T08:27:40;9.30;;;2.57;;
51602;SDS011;37954;51.980;5.850;2023-01-30T08:31:55;6.83;;;2.00;;
51602;SDS011;37954;51.980;5.850;2023-01-30T08:36:10;9.60;;;2.50;;
51602;SDS011;37954;51.980;5.850;2023-01-30T08:40:21;13.73;;;2.20;;
51602;SDS011;37954;51.980;5.850;2023-01-30T08:44:33;10.90;;;2.60;;
51602;SDS011;37954;51.980;5.850;2023-01-30T08:48:45;9.23;;;2.00;;
51602;SDS011;37954;51.980;5.850;2023-01-30T08:53:04;15.17;;;2.67;;
51602;SDS011;37954;51.980;5.850;2023-01-30T08:57:17;7.07;;;1.93;;
51602;SDS011;37954;51.980;5.850;2023-01-30T09:01:29;13.47;;;2.77;;
51602;SDS011;37954;51.980;5.850;2023-01-30T09:05:41;6.50;;;2.13;;
51602;SDS011;37954;51.980;5.850;2023-01-30T09:09:53;12.90;;;2.08;;
51602;SDS011;37954;51.980;5.850;2023-01-30T09:14:05;8.80;;;1.92;;
51602;SDS011;37954;51.980;5.850;2023-01-30T09:18:17;9.33;;;1.80;;
51602;SDS011;37954;51.980;5.850;2023-01-30T09:22:28;11.30;;;2.92;;
51602;SDS011;37954;51.980;5.850;2023-01-30T09:26:40;9.57;;;2.10;;
51602;SDS011;37954;51.980;5.850;2023-01-30T09:30:56;6.73;;;2.33;;
51602;SDS011;37954;51.980;5.850;2023-01-30T09:35:08;9.77;;;2.40;;
51602;SDS011;37954;51.980;5.850;2023-01-30T09:39:20;9.97;;;2.40;;
51602;SDS011;37954;51.980;5.850;2023-01-30T09:47:48;7.30;;;2.30;;
51602;SDS011;37954;51.980;5.850;2023-01-30T09:56:36;6.43;;;1.90;;
51602;SDS011;37954;51.980;5.850;2023-01-30T10:00:50;11.60;;;2.97;;
51602;SDS011;37954;51.980;5.850;2023-01-30T10:05:05;10.90;;;1.90;;
51602;SDS011;37954;51.980;5.850;2023-01-30T10:18:25;7.80;;;1.67;;
51602;SDS011;37954;51.980;5.850;2023-01-30T10:26:53;12.50;;;2.47;;
51602;SDS011;37954;51.980;5.850;2023-01-30T10:31:11;12.60;;;2.70;;
51602;SDS011;37954;51.980;5.850;2023-01-30T10:35:28;16.57;;;2.40;;
51602;SDS011;37954;51.980;5.850;2023-01-30T10:39:53;19.37;;;3.33;;
51602;SDS011;37954;51.980;5.850;2023-01-30T10:44:13;10.23;;;2.30;;
51602;SDS011;37954;51.980;5.850;2023-01-30T11:01:55;11.90;;;2.47;;
51602;SDS011;37954;51.980;5.850;2023-01-30T11:06:12;10.63;;;1.90;;
51602;SDS011;37954;51.980;5.850;2023-01-30T11:10:27;10.43;;;2.45;;
51602;SDS011;37954;51.980;5.850;2023-01-30T11:14:51;17.80;;;2.93;;
51602;SDS011;37954;51.980;5.850;2023-01-30T11:19:09;12.30;;;2.80;;
51602;SDS011;37954;51.980;5.850;2023-01-30T11:23:32;17.23;;;3.35;;
51602;SDS011;37954;51.980;5.850;2023-01-30T11:32:27;9.00;;;2.42;;
51602;SDS011;37954;51.980;5.850;2023-01-30T11:36:40;9.00;;;2.40;;
51602;SDS011;37954;51.980;5.850;2023-01-30T11:45:22;10.65;;;2.60;;
51602;SDS011;37954;51.980;5.850;2023-01-30T11:49:42;8.02;;;2.40;;
51602;SDS011;37954;51.980;5.850;2023-01-30T11:54:26;12.35;;;3.05;;
51602;SDS011;37954;51.980;5.850;2023-01-30T11:58:39;8.88;;;2.22;;
51602;SDS011;37954;51.980;5.850;2023-01-30T12:02:52;11.43;;;2.83;;
51602;SDS011;37954;51.980;5.850;2023-01-30T12:07:07;11.60;;;2.72;;
51602;SDS011;37954;51.980;5.850;2023-01-30T12:15:48;9.45;;;2.63;;
51602;SDS011;37954;51.980;5.850;2023-01-30T12:24:37;12.27;;;2.33;;
51602;SDS011;37954;51.980;5.850;2023-01-30T12:33:38;12.20;;;3.38;;
51602;SDS011;37954;51.980;5.850;2023-01-30T12:38:00;6.15;;;2.20;;
51602;SDS011;37954;51.980;5.850;2023-01-30T12:42:28;7.95;;;2.17;;
51602;SDS011;37954;51.980;5.850;2023-01-30T12:47:01;10.63;;;2.60;;
51602;SDS011;37954;51.980;5.850;2023-01-30T12:51:39;11.98;;;2.63;;
51602;SDS011;37954;51.980;5.850;2023-01-30T13:01:04;11.10;;;2.40;;
51602;SDS011;37954;51.980;5.850;2023-01-30T13:05:43;12.60;;;2.47;;
51602;SDS011;37954;51.980;5.850;2023-01-30T13:10:15;10.18;;;2.20;;
51602;SDS011;37954;51.980;5.850;2023-01-30T13:14:41;8.57;;;2.40;;
51602;SDS011;37954;51.980;5.850;2023-01-30T13:19:12;9.40;;;2.67;;
51602;SDS011;37954;51.980;5.850;2023-01-30T13:28:35;11.68;;;2.80;;
51602;SDS011;37954;51.980;5.850;2023-01-30T13:32:51;8.38;;;1.90;;
51602;SDS011;37954;51.980;5.850;2023-01-30T13:37:14;14.20;;;2.43;;
51602;SDS011;37954;51.980;5.850;2023-01-30T13:41:29;9.83;;;2.80;;
51602;SDS011;37954;51.980;5.850;2023-01-30T13:45:46;13.53;;;3.53;;
51602;SDS011;37954;51.980;5.850;2023-01-30T13:59:14;11.37;;;2.13;;
51602;SDS011;37954;51.980;5.850;2023-01-30T14:03:29;7.03;;;2.77;;
51602;SDS011;37954;51.980;5.850;2023-01-30T14:07:44;15.32;;;2.67;;
51602;SDS011;37954;51.980;5.850;2023-01-30T14:11:56;8.32;;;2.28;;
51602;SDS011;37954;51.980;5.850;2023-01-30T14:16:10;7.03;;;2.05;;
51602;SDS011;37954;51.980;5.850;2023-01-30T14:20:23;6.73;;;2.17;;
51602;SDS011;37954;51.980;5.850;2023-01-30T14:24:39;16.27;;;3.63;;
51602;SDS011;37954;51.980;5.850;2023-01-30T14:28:51;14.57;;;3.87;;
51602;SDS011;37954;51.980;5.850;2023-01-30T14:42:10;12.47;;;3.00;;
51602;SDS011;37954;51.980;5.850;2023-01-30T14:46:40;11.87;;;3.07;;
51602;SDS011;37954;51.980;5.850;2023-01-30T14:51:22;12.03;;;3.53;;
51602;SDS011;37954;51.980;5.850;2023-01-30T15:00:16;7.00;;;1.90;;
51602;SDS011;37954;51.980;5.850;2023-01-30T15:08:54;10.37;;;3.20;;
51602;SDS011;37954;51.980;5.850;2023-01-30T15:13:16;11.70;;;3.13;;
51602;SDS011;37954;51.980;5.850;2023-01-30T15:18:53;10.83;;;3.00;;
51602;SDS011;37954;51.980;5.850;2023-01-30T15:32:22;12.87;;;3.17;;
51602;SDS011;37954;51.980;5.850;2023-01-30T15:36:36;13.23;;;2.70;;
51602;SDS011;37954;51.980;5.850;2023-01-30T15:40:49;7.03;;;2.00;;
51602;SDS011;37954;51.980;5.850;2023-01-30T15:45:05;11.87;;;2.30;;
51602;SDS011;37954;51.980;5.850;2023-01-30T15:54:08;11.87;;;3.80;;
51602;SDS011;37954;51.980;5.850;2023-01-30T15:58:21;16.43;;;3.63;;
51602;SDS011;37954;51.980;5.850;2023-01-30T16:02:34;9.83;;;3.53;;
51602;SDS011;37954;51.980;5.850;2023-01-30T16:06:46;8.43;;;2.60;;
51602;SDS011;37954;51.980;5.850;2023-01-30T16:10:58;12.20;;;3.00;;
51602;SDS011;37954;51.980;5.850;2023-01-30T16:15:11;12.00;;;3.30;;
51602;SDS011;37954;51.980;5.850;2023-01-30T16:19:46;17.17;;;3.33;;
51602;SDS011;37954;51.980;5.850;2023-01-30T16:24:17;9.63;;;2.80;;
51602;SDS011;37954;51.980;5.850;2023-01-30T16:28:32;12.03;;;2.60;;
51602;SDS011;37954;51.980;5.850;2023-01-30T16:32:44;9.00;;;3.03;;
51602;SDS011;37954;51.980;5.850;2023-01-30T16:36:58;8.43;;;2.30;;
51602;SDS011;37954;51.980;5.850;2023-01-30T16:41:31;11.97;;;2.87;;
51602;SDS011;37954;51.980;5.850;2023-01-30T16:50:09;10.73;;;2.50;;
51602;SDS011;37954;51.980;5.850;2023-01-30T16:54:31;12.97;;;3.47;;
51602;SDS011;37954;51.980;5.850;2023-01-30T16:58:47;8.80;;;2.80;;
51602;SDS011;37954;51.980;5.850;2023-01-30T17:03:05;13.00;;;2.40;;
51602;SDS011;37954;51.980;5.850;2023-01-30T17:07:33;13.23;;;4.30;;
51602;SDS011;37954;51.980;5.850;2023-01-30T17:11:48;9.73;;;3.30;;
51602;SDS011;37954;51.980;5.850;2023-01-30T17:20:40;12.53;;;3.63;;
51602;SDS011;37954;51.980;5.850;2023-01-30T17:24:58;9.50;;;2.73;;
51602;SDS011;37954;51.980;5.850;2023-01-30T17:29:13;12.20;;;3.13;;
51602;SDS011;37954;51.980;5.850;2023-01-30T17:33:39;12.50;;;2.97;;
51602;SDS011;37954;51.980;5.850;2023-01-30T17:37:51;12.97;;;3.60;;
51602;SDS011;37954;51.980;5.850;2023-01-30T17:42:15;9.27;;;2.23;;
51602;SDS011;37954;51.980;5.850;2023-01-30T17:46:34;11.67;;;3.23;;
51602;SDS011;37954;51.980;5.850;2023-01-30T17:50:47;14.63;;;3.47;;
51602;SDS011;37954;51.980;5.850;2023-01-30T17:54:59;15.93;;;2.50;;
51602;SDS011;37954;51.980;5.850;2023-01-30T17:59:12;11.23;;;3.23;;
51602;SDS011;37954;51.980;5.850;2023-01-30T18:03:28;10.57;;;3.37;;
51602;SDS011;37954;51.980;5.850;2023-01-30T18:07:39;10.53;;;2.50;;
51602;SDS011;37954;51.980;5.850;2023-01-30T18:11:51;14.73;;;2.73;;
51602;SDS011;37954;51.980;5.850;2023-01-30T18:16:03;8.07;;;1.97;;
51602;SDS011;37954;51.980;5.850;2023-01-30T18:20:18;15.47;;;2.60;;
51602;SDS011;37954;51.980;5.850;2023-01-30T18:24:30;24.07;;;5.07;;
51602;SDS011;37954;51.980;5.850;2023-01-30T18:28:43;10.60;;;3.10;;
51602;SDS011;37954;51.980;5.850;2023-01-30T18:32:55;9.47;;;3.43;;
51602;SDS011;37954;51.980;5.850;2023-01-30T18:37:07;11.93;;;2.63;;
51602;SDS011;37954;51.980;5.850;2023-01-30T18:41:19;14.53;;;3.70;;
51602;SDS011;37954;51.980;5.850;2023-01-30T18:45:32;10.27;;;3.30;;
51602;SDS011;37954;51.980;5.850;2023-01-30T18:49:44;10.33;;;2.80;;
51602;SDS011;37954;51.980;5.850;2023-01-30T18:53:56;10.17;;;2.50;;
51602;SDS011;37954;51.980;5.850;2023-01-30T18:58:08;14.50;;;2.97;;
51602;SDS011;37954;51.980;5.850;2023-01-30T19:02:20;11.47;;;2.53;;
51602;SDS011;37954;51.980;5.850;2023-01-30T19:06:33;17.57;;;2.63;;
51602;SDS011;37954;51.980;5.850;2023-01-30T19:10:46;13.93;;;3.37;;
51602;SDS011;37954;51.980;5.850;2023-01-30T19:14:57;10.37;;;3.37;;
51602;SDS011;37954;51.980;5.850;2023-01-30T19:19:09;16.50;;;2.67;;
51602;SDS011;37954;51.980;5.850;2023-01-30T19:23:24;13.30;;;3.53;;
51602;SDS011;37954;51.980;5.850;2023-01-30T19:27:37;8.97;;;2.13;;
51602;SDS011;37954;51.980;5.850;2023-01-30T19:31:48;15.77;;;4.40;;
51602;SDS011;37954;51.980;5.850;2023-01-30T19:36:07;13.30;;;3.37;;
51602;SDS011;37954;51.980;5.850;2023-01-30T19:40:19;9.30;;;2.23;;
51602;SDS011;37954;51.980;5.850;2023-01-30T19:49:09;9.93;;;2.77;;
51602;SDS011;37954;51.980;5.850;2023-01-30T19:53:21;22.07;;;4.20;;
51602;SDS011;37954;51.980;5.850;2023-01-30T19:57:33;11.93;;;3.40;;
51602;SDS011;37954;51.980;5.850;2023-01-30T20:01:46;10.07;;;3.07;;
51602;SDS011;37954;51.980;5.850;2023-01-30T20:10:32;8.47;;;2.77;;
51602;SDS011;37954;51.980;5.850;2023-01-30T20:14:43;5.57;;;2.00;;
51602;SDS011;37954;51.980;5.850;2023-01-30T20:23:10;12.23;;;2.30;;
51602;SDS011;37954;51.980;5.850;2023-01-30T20:27:22;6.70;;;2.97;;
51602;SDS011;37954;51.980;5.850;2023-01-30T20:31:34;11.50;;;4.47;;
51602;SDS011;37954;51.980;5.850;2023-01-30T20:35:48;10.03;;;3.87;;
51602;SDS011;37954;51.980;5.850;2023-01-30T20:39:59;6.37;;;2.17;;
51602;SDS011;37954;51.980;5.850;2023-01-30T20:44:12;11.03;;;2.93;;
51602;SDS011;37954;51.980;5.850;2023-01-30T20:48:24;9.77;;;1.97;;
51602;SDS011;37954;51.980;5.850;2023-01-30T20:52:36;7.23;;;2.43;;
51602;SDS011;37954;51.980;5.850;2023-01-30T20:56:49;10.97;;;3.60;;
51602;SDS011;37954;51.980;5.850;2023-01-30T21:01:09;9.53;;;3.00;;
51602;SDS011;37954;51.980;5.850;2023-01-30T21:05:23;9.67;;;2.40;;
51602;SDS011;37954;51.980;5.850;2023-01-30T21:09:34;12.33;;;3.20;;
51602;SDS011;37954;51.980;5.850;2023-01-30T21:13:46;10.57;;;2.60;;
51602;SDS011;37954;51.980;5.850;2023-01-30T21:17:57;13.23;;;3.40;;
51602;SDS011;37954;51.980;5.850;2023-01-30T21:22:09;10.80;;;2.77;;
51602;SDS011;37954;51.980;5.850;2023-01-30T21:26:22;11.83;;;2.83;;
51602;SDS011;37954;51.980;5.850;2023-01-30T21:30:37;9.43;;;2.60;;
51602;SDS011;37954;51.980;5.850;2023-01-30T21:34:49;9.33;;;2.13;;
51602;SDS011;37954;51.980;5.850;2023-01-30T21:39:01;11.90;;;2.60;;
51602;SDS011;37954;51.980;5.850;2023-01-30T21:43:31;9.80;;;3.27;;
51602;SDS011;37954;51.980;5.850;2023-01-30T21:47:42;8.77;;;2.30;;
51602;SDS011;37954;51.980;5.850;2023-01-30T21:51:54;8.10;;;2.97;;
51602;SDS011;37954;51.980;5.850;2023-01-30T21:56:06;9.90;;;2.73;;
51602;SDS011;37954;51.980;5.850;2023-01-30T22:00:18;11.63;;;2.53;;
51602;SDS011;37954;51.980;5.850;2023-01-30T22:04:29;8.87;;;2.10;;
51602;SDS011;37954;51.980;5.850;2023-01-30T22:08:44;9.93;;;2.47;;
51602;SDS011;37954;51.980;5.850;2023-01-30T22:12:56;11.27;;;2.90;;
51602;SDS011;37954;51.980;5.850;2023-01-30T22:17:08;12.00;;;1.90;;
51602;SDS011;37954;51.980;5.850;2023-01-30T22:21:20;7.03;;;1.90;;
51602;SDS011;37954;51.980;5.850;2023-01-30T22:25:33;13.07;;;2.50;;
51602;SDS011;37954;51.980;5.850;2023-01-30T22:29:44;10.03;;;1.93;;
51602;SDS011;37954;51.980;5.850;2023-01-30T22:33:58;10.87;;;2.47;;
51602;SDS011;37954;51.980;5.850;2023-01-30T22:38:10;8.87;;;2.43;;
51602;SDS011;37954;51.980;5.850;2023-01-30T22:42:21;10.03;;;2.33;;
51602;SDS011;37954;51.980;5.850;2023-01-30T22:46:34;6.43;;;1.80;;
51602;SDS011;37954;51.980;5.850;2023-01-30T22:55:22;15.00;;;2.47;;
51602;SDS011;37954;51.980;5.850;2023-01-30T22:59:33;6.83;;;1.60;;
51602;SDS011;37954;51.980;5.850;2023-01-30T23:03:46;11.67;;;2.20;;
51602;SDS011;37954;51.980;5.850;2023-01-30T23:08:02;4.87;;;1.97;;
51602;SDS011;37954;51.980;5.850;2023-01-30T23:12:14;7.10;;;2.23;;
51602;SDS011;37954;51.980;5.850;2023-01-30T23:16:44;6.67;;;2.33;;
51602;SDS011;37954;51.980;5.850;2023-01-30T23:20:56;6.63;;;1.73;;
51602;SDS011;37954;51.980;5.850;2023-01-30T23:25:08;11.63;;;2.03;;
51602;SDS011;37954;51.980;5.850;2023-01-30T23:29:20;7.93;;;1.97;;
51602;SDS011;37954;51.980;5.850;2023-01-30T23:33:32;11.00;;;2.13;;
51602;SDS011;37954;51.980;5.850;2023-01-30T23:37:44;10.27;;;2.13;;
51602;SDS011;37954;51.980;5.850;2023-01-30T23:42:14;14.93;;;2.73;;
51602;SDS011;37954;51.980;5.850;2023-01-30T23:46:33;7.77;;;1.90;;
51602;SDS011;37954;51.980;5.850;2023-01-30T23:50:46;7.53;;;1.73;;
51602;SDS011;37954;51.980;5.850;2023-01-30T23:54:58;8.43;;;1.87;;
51602;SDS011;37954;51.980;5.850;2023-01-30T23:59:10;8.33;;;2.57;;
